Time;durP1;ratioP1;P1;durP2;ratioP2;P2;SDS_P1;SDS_P2;PMS_P1;PMS_P2;Temp;Humidity;BMP_temperature;BMP_pressure;BME280_temperature;BME280_humidity;BME280_pressure;Samples;Min_cycle;Max_cycle;Signal;HPM_P1;HPM_P2
2022/03/12 00:00:48;;;;;;;9.65;6.03;;;7.10;92.30;;;;;;5068432;28;20063;-83
2022/03/12 00:03:15;;;;;;;8.32;5.78;;;7.00;92.20;;;;;;5069659;28;20040;-84
2022/03/12 00:05:52;;;;;;;11.10;6.50;;;7.00;92.30;;;;;;5067414;28;20040;-83
2022/03/12 00:08:29;;;;;;;10.95;5.82;;;7.00;92.00;;;;;;5058408;28;20127;-85
2022/03/12 00:10:55;;;;;;;8.18;5.60;;;6.90;91.90;;;;;;5059145;28;20052;-82
2022/03/12 00:13:21;;;;;;;17.52;7.68;;;7.00;91.90;;;;;;5068792;28;20041;-82
2022/03/12 00:15:50;;;;;;;13.75;5.82;;;6.90;92.30;;;;;;5060351;28;20097;-83
2022/03/12 00:18:18;;;;;;;6.87;5.17;;;6.90;92.50;;;;;;5065580;28;20059;-84
2022/03/12 00:20:48;;;;;;;9.57;7.13;;;6.90;92.10;;;;;;5067983;28;20052;-82
2022/03/12 00:23:16;;;;;;;8.30;5.65;;;6.90;91.90;;;;;;5064309;28;20083;-82
2022/03/12 00:25:44;;;;;;;13.25;7.03;;;6.80;92.40;;;;;;5065494;28;20048;-82
2022/03/12 00:28:12;;;;;;;9.75;6.03;;;6.90;92.30;;;;;;5070134;28;20048;-83
2022/03/12 00:30:38;;;;;;;11.48;6.10;;;6.90;92.70;;;;;;5069387;28;20044;-82
2022/03/12 00:33:04;;;;;;;8.27;5.32;;;6.80;92.40;;;;;;5071576;28;20396;-84
2022/03/12 00:35:30;;;;;;;12.73;6.55;;;6.80;92.40;;;;;;5066684;28;20380;-84
2022/03/12 00:37:56;;;;;;;9.27;5.78;;;6.80;92.20;;;;;;5054201;28;20048;-80
2022/03/12 00:40:22;;;;;;;7.72;5.43;;;6.80;92.10;;;;;;5066969;28;20048;-81
2022/03/12 00:42:47;;;;;;;14.15;6.57;;;6.80;92.20;;;;;;5061932;28;20064;-84
2022/03/12 00:45:13;;;;;;;9.25;5.47;;;6.80;91.90;;;;;;5071137;28;20037;-83
2022/03/12 00:47:39;;;;;;;14.60;6.07;;;6.90;92.00;;;;;;5067413;28;20051;-82
2022/03/12 00:50:05;;;;;;;7.88;5.57;;;6.80;91.80;;;;;;5070429;28;20055;-81
2022/03/12 00:52:31;;;;;;;9.63;5.97;;;6.90;91.70;;;;;;5079491;28;20169;-84
2022/03/12 00:54:57;;;;;;;9.80;5.88;;;6.90;91.70;;;;;;5082264;28;20041;-80
2022/03/12 00:57:23;;;;;;;13.52;5.47;;;6.90;91.60;;;;;;5080916;28;20032;-81
2022/03/12 00:59:48;;;;;;;7.00;5.90;;;6.90;91.70;;;;;;5084292;28;20055;-81
2022/03/12 01:02:15;;;;;;;11.25;6.40;;;6.90;92.00;;;;;;5083259;28;20036;-80
2022/03/12 01:04:42;;;;;;;10.10;6.28;;;6.90;91.40;;;;;;5088371;28;20036;-82
2022/03/12 01:07:11;;;;;;;6.90;5.30;;;6.90;91.70;;;;;;5071419;28;20041;-82
2022/03/12 01:09:40;;;;;;;7.00;5.20;;;7.00;91.40;;;;;;5052211;28;20080;-82
2022/03/12 01:12:07;;;;;;;11.73;6.57;;;7.00;91.50;;;;;;5066553;28;20072;-82
2022/03/12 01:14:34;;;;;;;9.38;5.57;;;6.90;92.00;;;;;;5073729;28;20398;-80
2022/03/12 01:16:59;;;;;;;11.63;5.35;;;7.00;91.20;;;;;;5062473;28;20036;-83
2022/03/12 01:19:26;;;;;;;11.55;6.03;;;7.00;91.00;;;;;;5065412;28;20051;-83
2022/03/12 01:21:52;;;;;;;9.43;5.78;;;7.10;90.80;;;;;;5066347;28;20040;-82
2022/03/12 01:24:18;;;;;;;9.82;5.47;;;7.10;90.70;;;;;;5056643;28;20067;-83
2022/03/12 01:26:43;;;;;;;9.48;5.28;;;7.00;91.20;;;;;;5059316;28;20048;-84
2022/03/12 01:29:09;;;;;;;8.27;5.82;;;7.00;91.10;;;;;;5066156;28;20079;-84
2022/03/12 01:31:36;;;;;;;14.05;5.95;;;7.00;90.90;;;;;;5069849;28;20053;-85
2022/03/12 01:34:03;;;;;;;8.02;5.03;;;7.10;90.60;;;;;;5070443;28;20044;-83
2022/03/12 01:36:29;;;;;;;9.52;6.22;;;7.10;90.70;;;;;;5069872;28;20513;-83
2022/03/12 01:38:56;;;;;;;11.45;6.10;;;7.10;90.80;;;;;;5066587;28;20494;-82
2022/03/12 01:41:24;;;;;;;10.88;5.53;;;7.10;90.80;;;;;;5060028;28;20040;-83
2022/03/12 01:43:52;;;;;;;9.15;6.07;;;7.10;91.00;;;;;;5050781;28;20068;-83
2022/03/12 01:46:19;;;;;;;10.18;5.32;;;7.00;91.00;;;;;;5057903;28;20044;-82
2022/03/12 01:48:47;;;;;;;14.20;6.18;;;7.00;90.80;;;;;;5062851;28;20052;-82
2022/03/12 01:51:13;;;;;;;11.90;6.00;;;7.00;91.20;;;;;;5068118;28;20502;-83
2022/03/12 01:53:38;;;;;;;7.38;5.68;;;7.00;91.00;;;;;;5055093;28;20041;-84
2022/03/12 01:56:04;;;;;;;11.13;5.30;;;7.00;91.30;;;;;;5057757;28;20094;-83
2022/03/12 01:58:30;;;;;;;11.82;6.85;;;7.00;91.10;;;;;;5063537;28;20047;-82
2022/03/12 02:01:00;;;;;;;8.73;5.35;;;7.10;90.90;;;;;;5058263;28;20050;-79
2022/03/12 02:03:29;;;;;;;9.63;5.45;;;7.10;91.20;;;;;;5067686;28;20508;-77
2022/03/12 02:05:56;;;;;;;18.88;7.03;;;7.10;91.10;;;;;;5068742;28;20036;-81
2022/03/12 02:08:22;;;;;;;11.23;5.13;;;7.20;90.70;;;;;;5065353;28;20095;-84
2022/03/12 02:10:57;;;;;;;8.77;5.60;;;7.10;90.90;;;;;;5054628;28;20040;-85
2022/03/12 02:13:24;;;;;;;13.18;7.25;;;7.20;90.60;;;;;;5052151;28;20086;-82
2022/03/12 02:15:57;;;;;;;9.13;5.88;;;7.10;90.90;;;;;;5068096;28;20040;-81
2022/03/12 02:18:23;;;;;;;8.00;5.63;;;7.00;91.20;;;;;;5056880;28;20033;-83
2022/03/12 02:20:49;;;;;;;11.77;6.45;;;7.20;90.80;;;;;;5059879;28;20548;-84
2022/03/12 02:23:15;;;;;;;7.72;5.60;;;7.20;91.10;;;;;;5061100;28;20504;-84
2022/03/12 02:25:40;;;;;;;18.83;6.78;;;7.10;91.10;;;;;;5063088;28;20037;-83
2022/03/12 02:28:17;;;;;;;8.63;5.18;;;7.30;91.20;;;;;;5052916;28;20098;-83
2022/03/12 02:30:51;;;;;;;8.55;5.55;;;7.20;90.60;;;;;;5066369;28;20071;-83
2022/03/12 02:33:24;;;;;;;7.68;6.15;;;7.30;90.80;;;;;;5059673;28;20041;-83
2022/03/12 02:35:53;;;;;;;8.95;6.28;;;7.30;90.60;;;;;;5066140;28;20466;-83
2022/03/12 02:38:20;;;;;;;9.52;5.90;;;7.30;90.50;;;;;;5065163;28;20097;-83
2022/03/12 02:40:47;;;;;;;8.63;6.05;;;7.30;90.80;;;;;;5066096;28;20040;-83
2022/03/12 02:43:13;;;;;;;9.63;6.30;;;7.30;90.80;;;;;;5066017;28;20052;-82
2022/03/12 02:45:40;;;;;;;10.85;6.28;;;7.30;90.90;;;;;;5065459;28;20041;-82
2022/03/12 02:48:09;;;;;;;9.63;5.68;;;7.30;90.80;;;;;;5066170;28;20119;-84
2022/03/12 02:50:35;;;;;;;7.78;5.65;;;7.20;91.00;;;;;;5065623;28;20084;-82
2022/03/12 02:53:01;;;;;;;14.35;6.28;;;7.30;91.00;;;;;;5068404;28;20568;-84
2022/03/12 02:55:26;;;;;;;11.20;6.78;;;7.30;90.80;;;;;;5064680;28;20131;-76
2022/03/12 02:57:52;;;;;;;9.27;6.35;;;7.30;91.00;;;;;;5068361;28;20036;-83
2022/03/12 03:00:20;;;;;;;8.13;5.25;;;7.40;90.90;;;;;;5061430;28;20114;-82
2022/03/12 03:02:52;;;;;;;8.27;6.07;;;7.40;90.70;;;;;;5067424;28;20033;-80
2022/03/12 03:05:36;;;;;;;9.88;5.90;;;7.40;90.60;;;;;;5068896;28;20032;-82
2022/03/12 03:08:04;;;;;;;11.40;6.47;;;7.40;90.80;;;;;;5069167;28;20041;-82
2022/03/12 03:10:38;;;;;;;9.80;7.10;;;7.50;90.50;;;;;;5059152;28;20037;-84
2022/03/12 03:13:16;;;;;;;9.30;6.30;;;7.40;90.70;;;;;;5055938;28;20063;-83
2022/03/12 03:16:00;;;;;;;12.50;6.95;;;7.40;91.00;;;;;;5049446;28;20094;-84
2022/03/12 03:18:32;;;;;;;13.32;5.75;;;7.40;91.00;;;;;;5057685;28;20123;-85
2022/03/12 03:20:59;;;;;;;11.63;5.82;;;7.30;91.00;;;;;;5054824;28;20068;-83
2022/03/12 03:23:28;;;;;;;11.45;7.00;;;7.40;90.90;;;;;;5066557;28;20837;-82
2022/03/12 03:25:54;;;;;;;9.80;6.25;;;7.30;91.30;;;;;;5060847;28;20083;-83
2022/03/12 03:28:20;;;;;;;10.40;5.43;;;7.30;91.10;;;;;;5052008;28;20115;-83
2022/03/12 03:30:46;;;;;;;10.50;6.82;;;7.40;90.80;;;;;;5067185;28;20563;-82
2022/03/12 03:33:15;;;;;;;7.82;6.07;;;7.30;91.20;;;;;;5068973;28;20119;-85
2022/03/12 03:35:41;;;;;;;12.48;7.95;;;7.30;91.40;;;;;;5056082;28;20094;-86
2022/03/12 03:38:07;;;;;;;8.77;5.97;;;7.30;91.70;;;;;;5067916;28;20037;-82
2022/03/12 03:40:33;;;;;;;8.77;7.10;;;7.30;91.60;;;;;;5055373;28;20494;-84
2022/03/12 03:42:59;;;;;;;9.65;7.40;;;7.30;91.80;;;;;;5064459;28;20246;-83
2022/03/12 03:45:27;;;;;;;7.20;5.53;;;7.20;92.40;;;;;;5064123;28;20170;-84
2022/03/12 03:47:55;;;;;;;9.23;6.47;;;7.30;92.30;;;;;;5054761;28;20613;-85
2022/03/12 03:50:25;;;;;;;11.20;6.25;;;7.20;93.50;;;;;;5066291;28;20056;-86
2022/03/12 03:53:03;;;;;;;8.48;5.97;;;7.20;93.70;;;;;;5066987;28;20502;-83
2022/03/12 03:55:30;;;;;;;10.80;6.18;;;7.20;93.60;;;;;;5060111;28;20067;-82
2022/03/12 03:57:57;;;;;;;11.40;7.07;;;7.20;93.80;;;;;;5052856;28;20193;-84
2022/03/12 04:00:23;;;;;;;8.93;5.70;;;7.20;94.20;;;;;;5064240;28;20158;-83
2022/03/12 04:02:55;;;;;;;9.57;6.63;;;7.20;94.30;;;;;;5063755;28;20063;-85
2022/03/12 04:05:22;;;;;;;9.27;7.35;;;7.20;94.60;;;;;;5058737;28;20102;-85
2022/03/12 04:07:47;;;;;;;12.60;7.80;;;7.20;95.20;;;;;;5060472;28;20079;-83
2022/03/12 04:10:13;;;;;;;13.52;7.15;;;7.20;95.90;;;;;;5070632;28;20032;-82
2022/03/12 04:12:39;;;;;;;12.13;6.72;;;7.20;96.00;;;;;;5073010;28;20041;-84
2022/03/12 04:15:05;;;;;;;11.48;7.28;;;7.20;97.30;;;;;;5071980;28;20143;-84
2022/03/12 04:17:32;;;;;;;11.57;7.57;;;7.30;96.40;;;;;;5054311;28;20458;-83
2022/03/12 04:19:57;;;;;;;14.73;7.05;;;7.20;97.10;;;;;;5069688;28;20186;-84
2022/03/12 04:22:23;;;;;;;9.88;7.05;;;7.10;98.70;;;;;;5072952;28;20448;-84
2022/03/12 04:24:49;;;;;;;10.18;6.55;;;7.00;99.60;;;;;;5054194;28;20089;-85
2022/03/12 04:27:15;;;;;;;11.23;7.45;;;7.00;99.90;;;;;;5065333;28;20554;-85
2022/03/12 04:29:41;;;;;;;12.52;6.72;;;6.90;99.90;;;;;;5062045;28;20120;-84
2022/03/12 04:32:10;;;;;;;9.40;6.72;;;6.80;99.90;;;;;;5058676;28;20048;-85
2022/03/12 04:34:36;;;;;;;11.73;6.80;;;6.70;99.90;;;;;;5070998;28;20078;-85
2022/03/12 04:37:03;;;;;;;13.80;9.15;;;6.60;99.90;;;;;;5070684;28;20104;-85
2022/03/12 04:39:29;;;;;;;17.58;8.05;;;6.60;99.90;;;;;;5070947;28;20039;-84
2022/03/12 04:41:55;;;;;;;12.25;7.40;;;6.50;99.90;;;;;;5069421;28;20190;-83
2022/03/12 04:44:22;;;;;;;12.68;7.25;;;6.50;99.90;;;;;;5059803;28;20123;-83
2022/03/12 04:46:48;;;;;;;10.05;6.75;;;6.50;99.90;;;;;;5056205;28;20065;-85
2022/03/12 04:49:14;;;;;;;9.88;7.35;;;6.40;99.90;;;;;;5068009;28;20040;-85
2022/03/12 04:51:41;;;;;;;15.25;6.57;;;6.30;99.90;;;;;;5069605;28;20048;-84
2022/03/12 04:54:07;;;;;;;10.45;6.55;;;6.30;99.90;;;;;;5065919;28;20045;-85
2022/03/12 04:56:33;;;;;;;10.70;7.60;;;6.30;99.90;;;;;;5052076;28;20513;-86
2022/03/12 04:58:58;;;;;;;11.75;7.57;;;6.20;99.90;;;;;;5060659;28;20521;-85
2022/03/12 05:01:24;;;;;;;10.23;7.43;;;6.20;99.90;;;;;;5057930;28;20502;-86
2022/03/12 05:03:51;;;;;;;10.02;7.13;;;6.10;99.90;;;;;;5053972;28;20041;-86
2022/03/12 05:06:18;;;;;;;10.07;7.63;;;6.10;99.90;;;;;;5070273;28;20040;-85
2022/03/12 05:08:45;;;;;;;11.02;8.27;;;6.10;99.90;;;;;;5068944;28;20041;-85
2022/03/12 05:11:11;;;;;;;10.70;7.35;;;6.00;99.90;;;;;;5055027;28;20036;-85
2022/03/12 05:13:36;;;;;;;9.80;7.75;;;6.00;99.90;;;;;;5057067;28;20045;-85
2022/03/12 05:16:06;;;;;;;9.52;7.63;;;6.00;99.90;;;;;;5063962;28;20041;-84
2022/03/12 05:18:33;;;;;;;15.10;8.68;;;5.90;99.90;;;;;;5079854;28;20059;-83
2022/03/12 05:20:59;;;;;;;12.18;9.10;;;5.90;99.90;;;;;;5076945;28;20096;-84
2022/03/12 05:23:25;;;;;;;13.45;8.52;;;5.90;99.90;;;;;;5065213;28;20052;-84
2022/03/12 05:25:51;;;;;;;13.55;7.10;;;5.80;99.90;;;;;;5074476;28;20037;-84
2022/03/12 05:28:23;;;;;;;14.25;8.38;;;5.80;99.90;;;;;;5078245;28;20044;-84
2022/03/12 05:30:49;;;;;;;13.45;7.53;;;5.80;99.90;;;;;;5071763;28;20037;-84
2022/03/12 05:33:17;;;;;;;12.55;7.78;;;5.70;99.90;;;;;;5060892;28;20056;-84
2022/03/12 05:35:43;;;;;;;8.85;6.85;;;5.70;99.90;;;;;;5070446;28;20064;-85
2022/03/12 05:38:13;;;;;;;13.60;10.13;;;5.70;99.90;;;;;;5068789;28;20093;-85
2022/03/12 05:40:42;;;;;;;19.70;9.40;;;5.60;99.90;;;;;;5064170;28;20048;-83
2022/03/12 05:43:15;;;;;;;12.77;8.40;;;5.50;99.90;;;;;;5070837;28;20059;-84
2022/03/12 05:45:45;;;;;;;12.95;9.10;;;5.50;99.90;;;;;;5051764;28;20044;-85
2022/03/12 05:48:12;;;;;;;9.25;7.45;;;5.50;99.90;;;;;;5061032;28;20037;-83
2022/03/12 05:50:38;;;;;;;14.38;8.65;;;5.50;99.90;;;;;;5071206;28;20040;-85
2022/03/12 05:53:10;;;;;;;12.70;8.38;;;5.50;99.90;;;;;;5071097;28;20047;-84
2022/03/12 05:55:39;;;;;;;13.00;8.38;;;5.40;99.90;;;;;;5052355;28;20044;-82
2022/03/12 05:58:10;;;;;;;15.80;8.55;;;5.40;99.90;;;;;;5080664;28;20041;-83
2022/03/12 06:00:39;;;;;;;13.18;8.77;;;5.50;99.90;;;;;;5087414;28;20035;-84
2022/03/12 06:03:05;;;;;;;12.15;8.52;;;5.50;99.90;;;;;;5087194;28;20043;-83
2022/03/12 06:05:31;;;;;;;11.23;8.73;;;5.50;99.90;;;;;;5065129;28;20059;-86
2022/03/12 06:07:59;;;;;;;10.82;8.68;;;5.50;99.90;;;;;;5055708;28;20059;-87
2022/03/12 06:10:32;;;;;;;15.18;8.52;;;5.50;99.90;;;;;;5092055;28;20159;-81
2022/03/12 06:12:58;;;;;;;10.00;8.02;;;5.60;99.90;;;;;;5093824;28;20088;-81
2022/03/12 06:15:25;;;;;;;12.35;8.23;;;5.50;99.90;;;;;;5090819;28;20012;-84
2022/03/12 06:17:52;;;;;;;11.75;8.63;;;5.60;99.90;;;;;;5063028;28;20048;-83
2022/03/12 06:20:20;;;;;;;27.08;10.18;;;5.60;99.90;;;;;;5070081;28;20487;-85
2022/03/12 06:22:47;;;;;;;30.50;10.05;;;5.70;99.90;;;;;;5071042;28;20512;-84
2022/03/12 06:25:14;;;;;;;10.43;7.95;;;5.60;99.90;;;;;;5070338;28;20082;-82
2022/03/12 06:27:43;;;;;;;13.60;9.38;;;5.60;99.90;;;;;;5068734;28;20098;-85
2022/03/12 06:30:11;;;;;;;10.32;8.00;;;5.60;99.90;;;;;;5068869;28;20102;-85
2022/03/12 06:32:38;;;;;;;10.05;7.25;;;5.60;99.90;;;;;;5064787;28;20045;-85
2022/03/12 06:35:06;;;;;;;9.50;6.97;;;5.50;99.90;;;;;;5044841;28;20087;-84
2022/03/12 06:37:32;;;;;;;11.38;7.70;;;5.40;99.90;;;;;;5070600;28;20037;-84
2022/03/12 06:39:59;;;;;;;12.85;8.00;;;5.40;99.90;;;;;;5071270;28;20045;-85
2022/03/12 06:42:27;;;;;;;12.88;8.63;;;5.50;99.90;;;;;;5074047;28;20123;-81
2022/03/12 06:44:54;;;;;;;12.82;7.63;;;5.50;99.90;;;;;;5058692;28;20515;-82
2022/03/12 06:47:20;;;;;;;12.77;8.70;;;5.40;99.90;;;;;;5065845;28;20147;-82
2022/03/12 06:49:46;;;;;;;12.02;7.45;;;5.30;99.90;;;;;;5066673;28;20060;-82
2022/03/12 06:52:12;;;;;;;14.38;8.25;;;5.20;99.90;;;;;;5068335;28;20043;-81
2022/03/12 06:54:38;;;;;;;11.52;7.20;;;5.20;99.90;;;;;;5068919;28;20433;-82
2022/03/12 06:57:04;;;;;;;14.75;8.63;;;5.10;99.90;;;;;;5059811;28;20047;-82
2022/03/12 06:59:31;;;;;;;11.63;7.82;;;5.20;99.90;;;;;;5067951;28;20032;-81
2022/03/12 07:01:57;;;;;;;13.45;8.05;;;5.10;99.90;;;;;;5061097;28;20429;-84
2022/03/12 07:04:22;;;;;;;10.85;7.60;;;5.10;99.90;;;;;;5064777;28;20052;-82
2022/03/12 07:06:49;;;;;;;13.02;8.57;;;5.10;99.90;;;;;;5066502;28;20070;-81
2022/03/12 07:09:16;;;;;;;10.57;8.50;;;5.10;99.90;;;;;;5061439;28;20119;-81
2022/03/12 07:11:42;;;;;;;13.98;8.77;;;5.10;99.90;;;;;;5059786;28;20033;-82
2022/03/12 07:14:07;;;;;;;12.55;8.15;;;5.20;99.90;;;;;;5062396;28;20083;-84
2022/03/12 07:16:34;;;;;;;26.25;9.40;;;5.20;99.90;;;;;;5066187;28;20033;-82
2022/03/12 07:19:01;;;;;;;13.13;7.65;;;5.30;99.90;;;;;;5064773;28;20120;-81
2022/03/12 07:21:27;;;;;;;13.70;8.77;;;5.40;99.90;;;;;;5052425;28;20510;-79
2022/03/12 07:23:53;;;;;;;22.05;7.60;;;5.50;99.90;;;;;;5068143;28;20123;-84
2022/03/12 07:26:20;;;;;;;11.65;7.85;;;5.60;99.90;;;;;;5066896;28;20112;-82
2022/03/12 07:28:47;;;;;;;16.88;8.75;;;5.60;99.90;;;;;;5035745;28;20075;-82
2022/03/12 07:31:14;;;;;;;16.90;8.32;;;5.70;99.90;;;;;;5065524;28;20528;-84
2022/03/12 07:33:40;;;;;;;12.88;7.95;;;5.80;99.90;;;;;;5066721;28;20375;-83
2022/03/12 07:36:05;;;;;;;13.57;7.20;;;5.90;99.90;;;;;;5060431;28;20052;-82
2022/03/12 07:38:32;;;;;;;10.88;7.88;;;6.00;99.90;;;;;;5069511;28;20036;-75
2022/03/12 07:40:58;;;;;;;14.60;9.13;;;6.10;99.90;;;;;;5053954;28;20369;-82
2022/03/12 07:43:24;;;;;;;15.50;8.70;;;6.30;99.90;;;;;;5053073;28;20036;-81
2022/03/12 07:45:50;;;;;;;12.02;8.05;;;6.40;99.90;;;;;;5069459;28;20048;-81
2022/03/12 07:48:15;;;;;;;12.13;8.00;;;6.50;99.90;;;;;;5058789;28;20888;-83
2022/03/12 07:50:41;;;;;;;14.13;7.53;;;6.60;99.90;;;;;;5069589;28;20044;-81
2022/03/12 07:53:07;;;;;;;14.15;8.18;;;6.60;99.90;;;;;;5072004;28;20079;-81
2022/03/12 07:55:33;;;;;;;13.05;8.82;;;6.70;99.90;;;;;;5058844;28;20037;-74
2022/03/12 07:57:58;;;;;;;11.20;7.47;;;6.80;99.90;;;;;;5057314;28;20045;-80
2022/03/12 08:00:28;;;;;;;12.55;7.15;;;7.00;99.90;;;;;;5062704;28;20100;-82
2022/03/12 08:02:55;;;;;;;13.77;8.38;;;7.20;99.90;;;;;;5072874;28;20494;-84
2022/03/12 08:05:23;;;;;;;15.00;8.55;;;7.20;99.90;;;;;;5070757;28;20033;-81
2022/03/12 08:07:50;;;;;;;16.02;7.20;;;7.30;99.90;;;;;;5062269;28;20158;-81
2022/03/12 08:10:16;;;;;;;11.43;8.40;;;7.40;99.90;;;;;;5063672;28;20102;-82
2022/03/12 08:12:43;;;;;;;11.43;7.72;;;7.40;99.90;;;;;;5067223;28;20094;-80
2022/03/12 08:15:11;;;;;;;11.25;8.52;;;7.40;99.90;;;;;;5063531;28;20347;-81
2022/03/12 08:17:38;;;;;;;15.15;9.45;;;7.50;99.90;;;;;;5067924;28;20121;-79
2022/03/12 08:20:06;;;;;;;16.25;9.93;;;7.70;99.90;;;;;;5066885;28;20048;-81
2022/03/12 08:22:32;;;;;;;13.27;9.15;;;7.80;99.90;;;;;;5068230;28;20033;-81
2022/03/12 08:24:58;;;;;;;11.60;7.90;;;8.00;99.90;;;;;;5069417;28;20142;-80
2022/03/12 08:27:23;;;;;;;11.73;8.27;;;8.20;99.90;;;;;;5070228;28;20044;-80
2022/03/12 08:29:49;;;;;;;12.15;7.70;;;8.30;99.90;;;;;;5052842;28;20486;-80
2022/03/12 08:32:15;;;;;;;15.65;9.15;;;8.50;99.90;;;;;;5068724;28;20052;-81
2022/03/12 08:34:41;;;;;;;12.20;8.32;;;8.70;99.90;;;;;;5068591;28;20605;-80
2022/03/12 08:37:08;;;;;;;18.25;9.30;;;8.70;99.90;;;;;;5061433;28;20045;-81
2022/03/12 08:39:35;;;;;;;18.40;11.35;;;8.80;99.90;;;;;;5054893;28;20044;-81
2022/03/12 08:42:01;;;;;;;13.57;9.30;;;8.90;99.90;;;;;;5068783;28;20044;-81
2022/03/12 08:44:26;;;;;;;11.77;8.45;;;9.00;99.90;;;;;;5057265;28;20406;-79
2022/03/12 08:46:52;;;;;;;12.45;8.75;;;9.20;99.90;;;;;;5069885;28;20559;-80
2022/03/12 08:49:18;;;;;;;17.52;9.32;;;9.30;99.90;;;;;;5069856;28;20055;-80
2022/03/12 08:51:45;;;;;;;15.20;8.63;;;9.40;99.90;;;;;;5069415;28;20053;-82
2022/03/12 08:54:11;;;;;;;13.32;8.85;;;9.60;99.90;;;;;;5065422;28;20099;-79
2022/03/12 08:56:37;;;;;;;11.20;8.25;;;9.60;99.90;;;;;;5067663;28;20477;-81
2022/03/12 08:59:04;;;;;;;15.05;9.32;;;9.70;99.90;;;;;;5052155;28;20552;-81
2022/03/12 09:01:31;;;;;;;14.40;8.25;;;9.80;99.90;;;;;;5069684;28;20426;-82
2022/03/12 09:03:57;;;;;;;14.10;9.07;;;9.90;99.90;;;;;;5070141;28;20037;-80
2022/03/12 09:06:24;;;;;;;15.52;9.73;;;10.00;99.90;;;;;;5052354;28;20433;-83
2022/03/12 09:08:50;;;;;;;10.98;8.15;;;10.10;99.90;;;;;;5070319;28;20123;-80
2022/03/12 09:11:17;;;;;;;15.18;9.25;;;10.20;99.90;;;;;;5069359;28;20123;-80
2022/03/12 09:13:43;;;;;;;13.15;9.75;;;10.30;99.90;;;;;;5059251;28;20049;-80
2022/03/12 09:16:09;;;;;;;12.75;9.77;;;10.30;99.90;;;;;;5068472;28;20036;-80
2022/03/12 09:18:34;;;;;;;12.73;8.75;;;10.40;99.90;;;;;;5071807;28;20048;-81
2022/03/12 09:21:00;;;;;;;14.02;9.35;;;10.40;99.90;;;;;;5072591;28;20117;-80
2022/03/12 09:23:25;;;;;;;13.27;8.90;;;10.40;99.90;;;;;;5071170;28;20071;-77
2022/03/12 09:25:51;;;;;;;11.57;8.80;;;10.50;99.90;;;;;;5066925;28;20090;-81
2022/03/12 09:28:19;;;;;;;12.52;8.45;;;10.50;99.90;;;;;;5069829;28;20562;-82
2022/03/12 09:30:50;;;;;;;15.95;8.63;;;10.50;99.90;;;;;;5071770;28;20116;-79
2022/03/12 09:33:16;;;;;;;14.95;9.55;;;10.60;99.90;;;;;;5072872;28;20100;-81
2022/03/12 09:35:41;;;;;;;13.30;8.82;;;10.60;99.90;;;;;;5070415;28;20132;-81
2022/03/12 09:38:07;;;;;;;12.35;9.13;;;10.70;99.90;;;;;;5067637;28;20048;-81
2022/03/12 09:40:32;;;;;;;13.85;9.43;;;10.80;99.90;;;;;;5064693;28;20360;-81
2022/03/12 09:42:59;;;;;;;10.88;8.07;;;10.80;99.90;;;;;;5051017;28;20037;-81
2022/03/12 09:45:24;;;;;;;11.90;8.18;;;10.90;99.90;;;;;;5068029;28;20044;-81
2022/03/12 09:47:51;;;;;;;13.23;8.82;;;10.90;99.90;;;;;;5068151;28;20441;-79
2022/03/12 09:50:17;;;;;;;11.30;7.75;;;10.90;99.90;;;;;;5068558;28;20123;-81
2022/03/12 09:52:43;;;;;;;16.05;7.82;;;11.10;99.90;;;;;;5068866;28;20051;-81
2022/03/12 09:55:09;;;;;;;9.93;7.45;;;11.20;99.90;;;;;;5069753;28;20044;-82
2022/03/12 09:57:35;;;;;;;10.65;7.32;;;11.10;99.90;;;;;;5069867;28;20525;-81
2022/03/12 10:00:04;;;;;;;10.07;7.00;;;11.20;99.90;;;;;;5051851;28;20045;-81
2022/03/12 10:02:30;;;;;;;13.55;7.35;;;11.30;99.90;;;;;;5067471;28;20045;-80
2022/03/12 10:04:56;;;;;;;9.52;8.00;;;11.40;99.90;;;;;;5070522;28;20466;-78
2022/03/12 10:07:23;;;;;;;9.10;7.13;;;11.60;99.90;;;;;;5063794;28;20041;-81
2022/03/12 10:09:49;;;;;;;10.48;6.78;;;11.70;99.90;;;;;;5068499;28;20044;-82
2022/03/12 10:12:14;;;;;;;8.50;6.57;;;11.60;99.90;;;;;;5068197;28;20359;-80
2022/03/12 10:14:40;;;;;;;14.73;7.85;;;11.70;99.90;;;;;;5067238;28;20047;-81
2022/03/12 10:17:06;;;;;;;13.00;8.35;;;11.80;99.90;;;;;;5068052;28;20037;-79
2022/03/12 10:19:34;;;;;;;12.02;7.10;;;11.80;99.90;;;;;;5067425;28;20166;-80
2022/03/12 10:22:00;;;;;;;10.00;8.00;;;11.90;99.90;;;;;;5068659;28;20035;-81
2022/03/12 10:24:25;;;;;;;8.68;6.53;;;12.00;99.90;;;;;;5066622;28;20041;-77
2022/03/12 10:26:51;;;;;;;10.02;7.43;;;12.10;99.90;;;;;;5068351;28;20045;-81
2022/03/12 10:29:17;;;;;;;11.00;6.80;;;12.10;99.90;;;;;;5050927;28;20037;-80
2022/03/12 10:31:43;;;;;;;9.80;6.25;;;12.10;99.90;;;;;;5068060;28;20555;-81
2022/03/12 10:34:24;;;;;;;8.95;6.72;;;12.10;99.90;;;;;;5066779;28;20048;-81
2022/03/12 10:36:55;;;;;;;8.75;6.68;;;12.20;99.90;;;;;;5059597;28;20052;-80
2022/03/12 10:39:36;;;;;;;12.63;7.05;;;12.20;99.90;;;;;;5062083;28;20047;-80
2022/03/12 10:42:08;;;;;;;8.25;6.28;;;12.30;99.90;;;;;;5066043;28;20382;-81
2022/03/12 10:44:37;;;;;;;11.68;6.88;;;12.30;99.90;;;;;;5065600;28;20036;-79
2022/03/12 10:47:19;;;;;;;10.07;6.97;;;12.20;99.90;;;;;;5066745;28;20060;-81
2022/03/12 10:49:58;;;;;;;8.57;6.28;;;12.30;99.90;;;;;;5066089;28;20391;-80
2022/03/12 10:52:27;;;;;;;10.35;5.53;;;12.30;99.90;;;;;;5062332;28;20112;-81
2022/03/12 10:54:53;;;;;;;8.60;6.57;;;12.20;99.90;;;;;;5057855;28;20048;-81
2022/03/12 10:57:19;;;;;;;11.63;7.40;;;12.20;99.90;;;;;;5067531;28;20043;-81
2022/03/12 10:59:45;;;;;;;9.95;6.43;;;12.20;99.90;;;;;;5067902;28;20044;-80
2022/03/12 11:02:11;;;;;;;8.82;6.35;;;12.40;99.90;;;;;;5068041;28;20043;-80
2022/03/12 11:04:38;;;;;;;10.07;7.85;;;12.40;99.90;;;;;;5069429;28;20047;-81
2022/03/12 11:07:29;;;;;;;11.15;5.95;;;12.40;99.90;;;;;;5066788;28;20036;-81
2022/03/12 11:09:55;;;;;;;9.00;5.82;;;12.50;99.90;;;;;;5064719;28;20041;-81
2022/03/12 11:12:29;;;;;;;13.07;7.43;;;12.40;99.90;;;;;;5074149;28;20036;-79
2022/03/12 11:15:15;;;;;;;12.15;6.90;;;12.50;99.90;;;;;;5077869;28;20062;-80
2022/03/12 11:17:50;;;;;;;9.02;7.40;;;12.70;99.90;;;;;;5067718;28;20044;-79
2022/03/12 11:20:25;;;;;;;10.27;6.80;;;12.70;99.90;;;;;;5050474;28;20048;-79
2022/03/12 11:23:05;;;;;;;11.52;6.18;;;12.80;99.90;;;;;;5068958;28;20119;-81
2022/03/12 11:25:30;;;;;;;14.80;7.78;;;12.90;99.90;;;;;;5070056;28;20044;-81
2022/03/12 11:28:02;;;;;;;14.00;6.47;;;12.90;99.90;;;;;;5071299;28;20044;-80
2022/03/12 11:30:30;;;;;;;9.38;6.15;;;13.00;99.90;;;;;;5070189;28;20044;-81
2022/03/12 11:33:07;;;;;;;9.00;6.93;;;12.90;99.90;;;;;;5067535;28;20044;-78
2022/03/12 11:35:38;;;;;;;12.60;5.80;;;12.90;99.90;;;;;;5068270;28;20043;-80
2022/03/12 11:38:18;;;;;;;9.95;7.88;;;13.00;99.90;;;;;;5062755;28;20045;-82
2022/03/12 11:40:50;;;;;;;9.02;6.20;;;12.90;99.90;;;;;;5065591;28;20490;-81
2022/03/12 11:43:31;;;;;;;8.90;5.65;;;13.00;99.90;;;;;;5072855;28;20119;-80
2022/03/12 11:45:59;;;;;;;;;;;13.10;99.90;;;;;;5072667;28;20044;-81
2022/03/12 11:48:27;;;;;;;7.55;4.88;;;13.10;99.90;;;;;;5065701;28;21338;-79
2022/03/12 11:50:53;;;;;;;12.73;5.45;;;13.10;99.90;;;;;;5064754;28;20045;-81
2022/03/12 11:53:19;;;;;;;7.38;5.43;;;13.10;99.90;;;;;;5068527;28;20032;-81
2022/03/12 11:55:51;;;;;;;11.27;6.63;;;13.20;99.90;;;;;;5065265;28;20097;-80
2022/03/12 11:58:19;;;;;;;10.20;6.32;;;13.40;99.90;;;;;;5068316;28;20048;-82
2022/03/12 12:00:47;;;;;;;13.15;6.50;;;13.20;99.90;;;;;;5064828;28;20128;-81
2022/03/12 12:03:14;;;;;;;11.57;6.65;;;13.30;99.90;;;;;;5067517;28;20037;-79
2022/03/12 12:05:43;;;;;;;7.55;5.90;;;13.10;99.90;;;;;;5067116;28;20082;-80
2022/03/12 12:08:08;;;;;;;10.07;8.30;;;13.00;99.90;;;;;;5051944;28;20036;-80
2022/03/12 12:10:38;;;;;;;14.25;7.63;;;13.10;99.90;;;;;;5066871;28;20086;-81
2022/03/12 12:13:04;;;;;;;;;;;13.20;99.90;;;;;;5018095;28;20402;-83
2022/03/12 12:15:34;;;;;;;9.77;5.78;;;13.30;99.90;;;;;;5049320;28;19932;-81
2022/03/12 12:18:02;;;;;;;8.50;5.95;;;13.40;99.90;;;;;;5067274;28;20324;-81
2022/03/12 12:20:29;;;;;;;9.48;6.88;;;13.40;99.90;;;;;;5068026;28;20052;-82
2022/03/12 12:22:59;;;;;;;13.13;5.72;;;13.40;99.90;;;;;;5067947;28;20044;-82
2022/03/12 12:25:28;;;;;;;9.07;6.18;;;13.50;99.90;;;;;;5061217;28;20047;-79
2022/03/12 12:27:54;;;;;;;6.95;5.90;;;13.40;99.90;;;;;;5066626;28;20494;-81
2022/03/12 12:30:42;;;;;;;10.00;5.97;;;13.40;99.90;;;;;;5067260;28;20089;-79
2022/03/12 12:33:29;;;;;;;8.40;5.00;;;13.50;99.90;;;;;;5071277;28;20041;-79
2022/03/12 12:36:09;;;;;;;8.65;6.07;;;13.50;99.90;;;;;;5071273;28;20513;-80
2022/03/12 12:38:35;;;;;;;11.40;7.32;;;13.30;99.90;;;;;;5068863;28;20052;-81
2022/03/12 12:41:03;;;;;;;12.48;6.03;;;13.50;99.90;;;;;;5067198;28;20082;-81
2022/03/12 12:43:39;;;;;;;8.82;6.07;;;13.50;99.90;;;;;;5066257;28;20048;-79
2022/03/12 12:46:08;;;;;;;9.73;6.82;;;13.40;99.90;;;;;;5062601;28;20596;-84
2022/03/12 12:48:38;;;;;;;10.35;6.47;;;13.30;99.90;;;;;;5069336;28;20080;-84
2022/03/12 12:51:11;;;;;;;12.05;6.55;;;13.40;99.90;;;;;;5065844;28;20081;-81